• Join FlightAware (Why Join?)
  • Login
  • US Flag 
06:20AM EDT


 

Airport Tracker/Info


-or-


 

Live Flight TrackerFlight Track Log ✈ SWA1635 ✈ 07-May-2013 ✈ KLAS - KTUS

Flight Track Log - Related Links

Times and Time Zones

All times are in EDT time to prevent confusion due to time zone crossing. See the SWA1635 flight status page for this flight to view local times or setup timezone preferences in your user account.

Time Position Orientation Groundspeed Altitude Reporting Facility
EDT Latitude Longitude Course Direction KTS MPH feet Rate Location/Type
10:36AM 36.0744 -115.2364 269° West 188 216 5,100  Level Los Angeles Center
10:37AM 36.0133 -115.2803 210° Southwest 258 297 6,500 2,100 Climbing Los Angeles Center
10:39AM 35.8806 -115.2369 165° South 285 328 11,700 2,760 Climbing Los Angeles Center
10:40AM 35.8803 -115.1253 90° East 325 374 15,100 3,240 Climbing Los Angeles Center
10:41AM 35.8366 -114.7321 83° East  Level FlightAware Approximate
10:41AM 35.8742 -115.0058 94° East 342 394 18,400  Level Los Angeles Center
10:43AM 35.8681 -114.8803 93° East 359 413 21,200 2,700 Climbing Los Angeles Center
10:44AM 35.8614 -114.7183 93° East 386 444 24,100 2,460 Climbing Los Angeles Center
10:45AM 35.8456 -114.5767 98° East 408 470 26,300 1,920 Climbing Los Angeles Center
10:46AM 35.7817 -114.4592 124° Southeast 412 474 28,100 1,740 Climbing Los Angeles Center
10:47AM 35.7175 -114.3369 123° Southeast 419 482 29,900 1,560 Climbing Los Angeles Center
10:48AM 35.6425 -114.2011 124° Southeast 438 504 31,400 1,500 Climbing Los Angeles Center
10:49AM 35.5494 -114.1042 140° Southeast 442 509 33,000 720 Climbing Los Angeles Center
10:50AM 35.4575 -114.0083 140° Southeast 437 503 33,000  Level Los Angeles Center
10:51AM 35.3639 -113.9133 140° Southeast 438 504 33,000  Level Los Angeles Center
10:52AM 35.2703 -113.8125 139° Southeast 446 513 33,000  Level Los Angeles Center
10:53AM 35.1733 -113.7153 141° Southeast 453 521 33,000  Level Los Angeles Center
10:54AM 35.0581 -113.5958 140° Southeast 455 524 33,000  Level Los Angeles Center
10:55AM 34.9628 -113.4983 140° Southeast 453 521 33,000  Level Los Angeles Center
10:56AM 34.8672 -113.4008 140° Southeast 453 521 33,000  Level Los Angeles Center
10:56AM 34.8481 -113.3817 141° Southeast 453 521 33,000  Level Albuquerque Center
10:57AM 34.7536 -113.2844 140° Southeast 451 519 33,000  Level Albuquerque Center
10:58AM 34.6406 -113.1689 140° Southeast 448 516 33,000  Level Albuquerque Center
10:59AM 34.5467 -113.0722 140° Southeast 446 513 33,000  Level Albuquerque Center
11:00AM 34.4511 -112.9781 141° Southeast 445 512 33,000  Level Albuquerque Center
11:01AM 34.3508 -112.9025 148° Southeast 442 509 33,000  Level Albuquerque Center
11:02AM 34.2272 -112.8150 150° Southeast 433 498 33,000  Level Albuquerque Center
11:03AM 34.1228 -112.7439 151° Southeast 433 498 33,000  Level Albuquerque Center
11:04AM 34.0178 -112.6711 150° Southeast 435 501 33,000  Level Albuquerque Center
11:05AM 33.9122 -112.5994 151° Southeast 437 503 33,000 -1,020 Level Albuquerque Center
11:06AM 33.8064 -112.5264 150° Southeast 440 506 31,000 -1,020 Descending Albuquerque Center
11:07AM 33.7039 -112.4569 151° Southeast 429 494 31,000  Level Albuquerque Center
11:09AM 33.5775 -112.3714 151° Southeast 437 503 31,000 -420 Level Albuquerque Center
11:10AM 33.4706 -112.2994 151° Southeast 441 507 30,200 -900 Descending Albuquerque Center
11:11AM 33.3647 -112.2258 150° Southeast 443 510 29,200 -1,020 Descending Albuquerque Center
11:12AM 33.2611 -112.1558 151° Southeast 435 501 28,200 -1,020 Descending Albuquerque Center
11:13AM 33.1600 -112.0894 151° Southeast 423 487 27,200 -1,080 Descending Albuquerque Center
11:14AM 33.0419 -112.0117 151° Southeast 409 471 26,000 -1,080 Descending Albuquerque Center
11:15AM 32.9444 -111.9461 151° Southeast 404 465 25,000 -1,020 Descending Albuquerque Center
11:16AM 32.8500 -111.8789 149° Southeast 398 458 24,000 -1,620 Descending Albuquerque Center
11:17AM 32.7617 -111.8036 144° Southeast 392 451 21,700 -2,220 Descending Albuquerque Center
11:18AM 32.6767 -111.7333 145° Southeast 376 433 19,500 -2,460 Descending Albuquerque Center
11:18AM 32.6244 -111.6961 149° Southeast 363 418 18,100 -2,460 Descending Albuquerque Center
11:19AM 32.5472 -111.6281 143° Southeast 347 399 16,000 -2,100 Descending Albuquerque Center
11:20AM 32.5164 -111.5744 124° Southeast 347 399 14,700 -2,820 Descending Albuquerque Center
11:20AM 32.4911 -111.5342 127° Southeast 352 405 13,200 -2,520 Descending Albuquerque Center
11:21AM 32.4625 -111.4775 121° Southeast 351 404 12,100 -1,740 Descending Albuquerque Center
11:21AM 32.4333 -111.4336 128° Southeast 344 396 11,300 -1,800 Descending Albuquerque Center
11:22AM 32.4114 -111.3856 118° Southeast 346 398 10,300 -1,320 Descending Albuquerque Center
11:22AM 32.3853 -111.3503 131° Southeast 311 358 10,000 -1,020 Descending Albuquerque Center
11:23AM 32.3672 -111.3064 116° Southeast 322 371 9,300 -1,620 Descending Albuquerque Center
11:23AM 32.3403 -111.2717 133° Southeast 278 320 8,400 -1,380 Descending Albuquerque Center
11:24AM 32.3247 -111.2367 118° Southeast 292 336 7,900 -900 Descending Albuquerque Center
11:24AM 32.2983 -111.1997 130° Southeast 265 305 7,500 -1,200 Descending Albuquerque Center
11:25AM 32.2772 -111.1542 119° Southeast 269 310 6,700 -1,200 Descending Albuquerque Center
11:26AM 32.2567 -111.1278 133° Southeast 249 287 6,200 -1,260 Descending Albuquerque Center
11:26AM 32.2394 -111.0883 117° Southeast 257 296 5,400 -1,320 Descending Albuquerque Center
11:27AM 32.2203 -111.0619 131° Southeast 246 283 4,900 -720 Descending Albuquerque Center
11:27AM 32.2019 -111.0272 122° Southeast 246 283 4,700 -840 Descending Albuquerque Center
11:28AM 32.1814 -111.0169 157° South 175 201 4,100 -900 Descending Albuquerque Center
11:28AM 32.1700 -110.9972 124° Southeast 189 217 3,800 -600 Descending Albuquerque Center
11:29AM 32.1542 -110.9867 151° Southeast 134 154 3,500 -780 Descending Albuquerque Center
11:30AM 32.1289 -110.9556 134° Southeast 134 154 2,700 -840 Descending Albuquerque Center
11:32AM 32.1161 -110.9410 128° Southeast  Level Estimated